sensor_id;sensor_type;location;lat;lon;timestamp;pressure;altitude;pressure_sealevel;temperature;humidity
48386;BME280;34644;47.964;7.982;2023-08-30T00:05:29;96100.56;;;19.27;66.08
48386;BME280;34644;47.964;7.982;2023-08-30T00:12:29;96096.81;;;19.28;66.19
48386;BME280;34644;47.964;7.982;2023-08-30T00:19:30;96096.81;;;19.28;65.94
48386;BME280;34644;47.964;7.982;2023-08-30T00:26:30;96088.78;;;19.28;65.83
48386;BME280;34644;47.964;7.982;2023-08-30T00:33:31;96097.59;;;19.28;66.05
48386;BME280;34644;47.964;7.982;2023-08-30T00:40:37;96096.00;;;19.27;65.98
48386;BME280;34644;47.964;7.982;2023-08-30T00:47:37;96097.88;;;19.27;65.94
48386;BME280;34644;47.964;7.982;2023-08-30T00:54:38;96081.56;;;19.28;66.00
48386;BME280;34644;47.964;7.982;2023-08-30T01:01:39;96075.44;;;19.28;65.86
48386;BME280;34644;47.964;7.982;2023-08-30T01:08:41;96068.19;;;19.28;65.97
48386;BME280;34644;47.964;7.982;2023-08-30T01:15:42;96064.75;;;19.28;66.05
48386;BME280;34644;47.964;7.982;2023-08-30T01:22:45;96067.41;;;19.28;65.78
48386;BME280;34644;47.964;7.982;2023-08-30T01:29:47;96060.19;;;19.28;66.04
48386;BME280;34644;47.964;7.982;2023-08-30T01:36:49;96061.28;;;19.27;65.94
48386;BME280;34644;47.964;7.982;2023-08-30T01:43:49;96048.22;;;19.26;65.89
48386;BME280;34644;47.964;7.982;2023-08-30T01:50:52;96058.59;;;19.27;65.97
48386;BME280;34644;47.964;7.982;2023-08-30T01:57:58;96060.50;;;19.27;65.62
48386;BME280;34644;47.964;7.982;2023-08-30T02:04:59;96054.38;;;19.26;65.90
48386;BME280;34644;47.964;7.982;2023-08-30T02:12:00;96052.47;;;19.27;65.93
48386;BME280;34644;47.964;7.982;2023-08-30T02:19:05;96048.22;;;19.26;65.84
48386;BME280;34644;47.964;7.982;2023-08-30T02:26:06;96046.34;;;19.26;65.85
48386;BME280;34644;47.964;7.982;2023-08-30T02:33:09;96042.56;;;19.27;65.92
48386;BME280;34644;47.964;7.982;2023-08-30T02:40:09;96042.09;;;19.25;65.84
48386;BME280;34644;47.964;7.982;2023-08-30T02:47:12;96044.47;;;19.27;65.86
48386;BME280;34644;47.964;7.982;2023-08-30T02:54:12;96046.34;;;19.26;65.68
48386;BME280;34644;47.964;7.982;2023-08-30T03:01:13;96041.00;;;19.26;65.73
48386;BME280;34644;47.964;7.982;2023-08-30T03:08:14;96034.06;;;19.25;65.74
48386;BME280;34644;47.964;7.982;2023-08-30T03:15:14;96021.50;;;19.26;65.81
48386;BME280;34644;47.964;7.982;2023-08-30T03:22:14;96021.50;;;19.26;65.88
48386;BME280;34644;47.964;7.982;2023-08-30T03:29:15;96024.16;;;19.26;65.72
48386;BME280;34644;47.964;7.982;2023-08-30T03:36:16;96023.38;;;19.25;65.57
48386;BME280;34644;47.964;7.982;2023-08-30T03:43:17;96021.81;;;19.24;65.67
48386;BME280;34644;47.964;7.982;2023-08-30T03:50:17;96025.75;;;19.27;65.87
48386;BME280;34644;47.964;7.982;2023-08-30T03:57:17;96029.81;;;19.24;65.72
48386;BME280;34644;47.964;7.982;2023-08-30T04:04:17;96029.81;;;19.24;65.74
48386;BME280;34644;47.964;7.982;2023-08-30T04:11:18;96037.81;;;19.24;65.62
48386;BME280;34644;47.964;7.982;2023-08-30T04:18:19;96030.50;;;19.07;63.86
48386;BME280;34644;47.964;7.982;2023-08-30T04:25:19;96042.13;;;19.11;64.74
48386;BME280;34644;47.964;7.982;2023-08-30T04:32:20;96028.34;;;19.18;63.78
48386;BME280;34644;47.964;7.982;2023-08-30T04:39:20;96031.34;;;19.16;62.66
48386;BME280;34644;47.964;7.982;2023-08-30T04:46:21;96042.50;;;19.19;61.70
48386;BME280;34644;47.964;7.982;2023-08-30T04:53:21;96028.97;;;19.15;61.26
48386;BME280;34644;47.964;7.982;2023-08-30T05:00:22;96038.84;;;19.14;60.63
48386;BME280;34644;47.964;7.982;2023-08-30T05:07:22;96033.03;;;19.12;60.42
48386;BME280;34644;47.964;7.982;2023-08-30T05:14:22;96035.22;;;19.10;60.20
48386;BME280;34644;47.964;7.982;2023-08-30T05:21:23;96043.25;;;19.10;59.59
48386;BME280;34644;47.964;7.982;2023-08-30T05:28:23;96050.88;;;19.03;59.02
48386;BME280;34644;47.964;7.982;2023-08-30T05:35:25;96033.34;;;19.11;58.89
48386;BME280;34644;47.964;7.982;2023-08-30T05:42:48;96037.09;;;19.10;59.96
48386;BME280;34644;47.964;7.982;2023-08-30T05:49:48;96044.94;;;19.06;59.96
48386;BME280;34644;47.964;7.982;2023-08-30T05:56:48;96046.22;;;19.09;59.86
48386;BME280;34644;47.964;7.982;2023-08-30T06:03:50;96041.78;;;19.04;58.71
48386;BME280;34644;47.964;7.982;2023-08-30T06:10:50;96040.66;;;19.05;58.92
48386;BME280;34644;47.964;7.982;2023-08-30T06:17:51;96036.31;;;19.09;59.62
48386;BME280;34644;47.964;7.982;2023-08-30T06:24:51;96038.69;;;19.11;58.45
48386;BME280;34644;47.964;7.982;2023-08-30T06:31:51;96027.81;;;19.07;57.96
48386;BME280;34644;47.964;7.982;2023-08-30T06:38:51;96044.63;;;19.08;57.88
48386;BME280;34644;47.964;7.982;2023-08-30T06:45:52;96032.94;;;19.04;58.10
48386;BME280;34644;47.964;7.982;2023-08-30T06:52:53;96032.84;;;19.09;58.01
48386;BME280;34644;47.964;7.982;2023-08-30T06:59:53;96018.69;;;19.08;57.65
48386;BME280;34644;47.964;7.982;2023-08-30T07:06:53;96025.44;;;19.06;57.99
48386;BME280;34644;47.964;7.982;2023-08-30T07:13:54;96027.81;;;19.07;57.56
48386;BME280;34644;47.964;7.982;2023-08-30T07:20:54;96028.59;;;19.08;57.54
48386;BME280;34644;47.964;7.982;2023-08-30T07:27:54;96036.78;;;19.11;57.94
48386;BME280;34644;47.964;7.982;2023-08-30T07:34:54;96023.94;;;19.13;57.93
48386;BME280;34644;47.964;7.982;2023-08-30T07:41:55;96024.84;;;19.09;57.98
48386;BME280;34644;47.964;7.982;2023-08-30T07:48:55;96021.88;;;19.10;58.46
48386;BME280;34644;47.964;7.982;2023-08-30T07:55:55;96012.97;;;19.15;58.71
48386;BME280;34644;47.964;7.982;2023-08-30T08:02:56;96002.69;;;19.08;58.35
48386;BME280;34644;47.964;7.982;2023-08-30T08:09:56;96007.63;;;19.15;59.08
48386;BME280;34644;47.964;7.982;2023-08-30T08:16:57;96008.41;;;19.15;59.07
48386;BME280;34644;47.964;7.982;2023-08-30T08:23:57;96004.66;;;19.16;59.26
48386;BME280;34644;47.964;7.982;2023-08-30T08:30:57;96003.53;;;19.17;59.24
48386;BME280;34644;47.964;7.982;2023-08-30T08:37:58;96005.13;;;19.19;59.13
48386;BME280;34644;47.964;7.982;2023-08-30T08:44:58;96006.69;;;19.20;59.33
48386;BME280;34644;47.964;7.982;2023-08-30T08:52:00;96004.00;;;19.20;59.30
48386;BME280;34644;47.964;7.982;2023-08-30T08:59:00;96009.06;;;19.21;59.22
48386;BME280;34644;47.964;7.982;2023-08-30T09:06:01;96010.94;;;19.21;59.61
48386;BME280;34644;47.964;7.982;2023-08-30T09:13:02;96011.94;;;19.25;59.50
48386;BME280;34644;47.964;7.982;2023-08-30T09:20:09;96014.28;;;19.26;59.53
48386;BME280;34644;47.964;7.982;2023-08-30T09:27:09;96024.47;;;19.24;59.75
48386;BME280;34644;47.964;7.982;2023-08-30T09:34:09;96023.88;;;19.05;61.07
48386;BME280;34644;47.964;7.982;2023-08-30T09:41:11;96024.59;;;18.96;61.32
48386;BME280;34644;47.964;7.982;2023-08-30T09:48:12;96019.81;;;19.07;62.67
48386;BME280;34644;47.964;7.982;2023-08-30T09:55:12;96026.41;;;19.10;62.95
48386;BME280;34644;47.964;7.982;2023-08-30T10:02:12;96028.41;;;19.04;63.81
48386;BME280;34644;47.964;7.982;2023-08-30T10:09:13;96026.34;;;19.01;64.37
48386;BME280;34644;47.964;7.982;2023-08-30T10:16:15;96026.88;;;18.89;64.20
48386;BME280;34644;47.964;7.982;2023-08-30T10:23:18;96028.28;;;18.87;66.30
48386;BME280;34644;47.964;7.982;2023-08-30T10:30:19;96021.81;;;18.88;67.01
48386;BME280;34644;47.964;7.982;2023-08-30T10:37:23;96008.19;;;18.75;66.34
48386;BME280;34644;47.964;7.982;2023-08-30T10:44:24;96003.81;;;18.79;65.94
48386;BME280;34644;47.964;7.982;2023-08-30T10:51:37;96010.38;;;18.73;66.39
48386;BME280;34644;47.964;7.982;2023-08-30T10:58:38;96010.06;;;18.75;65.08
48386;BME280;34644;47.964;7.982;2023-08-30T11:05:40;96009.88;;;18.71;65.54
48386;BME280;34644;47.964;7.982;2023-08-30T11:12:40;96013.63;;;18.70;65.84
48386;BME280;34644;47.964;7.982;2023-08-30T11:19:41;96006.91;;;18.73;65.38
48386;BME280;34644;47.964;7.982;2023-08-30T11:26:41;96007.56;;;18.78;66.25
48386;BME280;34644;47.964;7.982;2023-08-30T11:33:49;95981.09;;;18.82;63.92
48386;BME280;34644;47.964;7.982;2023-08-30T11:40:49;95978.81;;;18.89;63.19
48386;BME280;34644;47.964;7.982;2023-08-30T11:47:52;95973.72;;;19.02;62.86
48386;BME280;34644;47.964;7.982;2023-08-30T11:54:53;95965.13;;;19.05;62.89
48386;BME280;34644;47.964;7.982;2023-08-30T12:01:54;95956.00;;;19.06;63.09
48386;BME280;34644;47.964;7.982;2023-08-30T12:08:57;95973.28;;;19.08;63.25
48386;BME280;34644;47.964;7.982;2023-08-30T12:15:58;95960.63;;;19.14;62.99
48386;BME280;34644;47.964;7.982;2023-08-30T12:22:59;95946.66;;;19.17;62.89
48386;BME280;34644;47.964;7.982;2023-08-30T12:30:00;95943.06;;;19.22;63.10
48386;BME280;34644;47.964;7.982;2023-08-30T12:37:00;95934.47;;;19.25;62.84
48386;BME280;34644;47.964;7.982;2023-08-30T12:44:06;95936.00;;;19.26;62.91
48386;BME280;34644;47.964;7.982;2023-08-30T12:51:06;95930.38;;;19.27;62.91
48386;BME280;34644;47.964;7.982;2023-08-30T12:58:07;95935.72;;;19.27;62.96
48386;BME280;34644;47.964;7.982;2023-08-30T13:05:08;95932.72;;;19.29;62.98
48386;BME280;34644;47.964;7.982;2023-08-30T13:12:08;95932.72;;;19.29;63.40
48386;BME280;34644;47.964;7.982;2023-08-30T13:19:09;95928.97;;;19.30;63.42
48386;BME280;34644;47.964;7.982;2023-08-30T13:26:09;95932.13;;;19.32;63.38
48386;BME280;34644;47.964;7.982;2023-08-30T13:33:10;95926.03;;;19.40;60.82
48386;BME280;34644;47.964;7.982;2023-08-30T13:40:11;95917.22;;;19.31;61.62
48386;BME280;34644;47.964;7.982;2023-08-30T13:47:11;95921.94;;;19.34;61.63
48386;BME280;34644;47.964;7.982;2023-08-30T13:54:11;95917.38;;;19.34;61.28
48386;BME280;34644;47.964;7.982;2023-08-30T14:01:12;95921.13;;;19.33;61.56
48386;BME280;34644;47.964;7.982;2023-08-30T14:08:12;95917.38;;;19.34;61.69
48386;BME280;34644;47.964;7.982;2023-08-30T14:15:12;95918.66;;;19.37;60.83
48386;BME280;34644;47.964;7.982;2023-08-30T14:22:13;95921.00;;;19.39;60.13
48386;BME280;34644;47.964;7.982;2023-08-30T14:29:13;95921.81;;;19.39;59.57
48386;BME280;34644;47.964;7.982;2023-08-30T14:36:14;95929.91;;;19.57;55.71
48386;BME280;34644;47.964;7.982;2023-08-30T14:43:15;95929.22;;;19.42;57.28
48386;BME280;34644;47.964;7.982;2023-08-30T14:50:16;95928.22;;;19.38;57.62
48386;BME280;34644;47.964;7.982;2023-08-30T14:57:16;95936.84;;;19.35;57.03
48386;BME280;34644;47.964;7.982;2023-08-30T15:04:17;95930.44;;;19.36;57.66
48386;BME280;34644;47.964;7.982;2023-08-30T15:11:17;95936.84;;;19.35;58.12
48386;BME280;34644;47.964;7.982;2023-08-30T15:18:18;95934.34;;;19.39;58.32
48386;BME280;34644;47.964;7.982;2023-08-30T15:25:19;95939.53;;;19.35;57.69
48386;BME280;34644;47.964;7.982;2023-08-30T15:32:19;95931.03;;;19.33;57.48
48386;BME280;34644;47.964;7.982;2023-08-30T15:39:19;95936.84;;;19.35;57.53
48386;BME280;34644;47.964;7.982;2023-08-30T15:46:20;95932.31;;;19.36;57.14
48386;BME280;34644;47.964;7.982;2023-08-30T15:53:21;95925.09;;;19.36;57.29
48386;BME280;34644;47.964;7.982;2023-08-30T16:00:24;95920.06;;;19.34;56.13
48386;BME280;34644;47.964;7.982;2023-08-30T16:07:24;95915.25;;;19.45;53.46
48386;BME280;34644;47.964;7.982;2023-08-30T16:14:28;95914.19;;;19.64;50.23
48386;BME280;34644;47.964;7.982;2023-08-30T16:21:28;95914.94;;;19.56;49.53
48386;BME280;34644;47.964;7.982;2023-08-30T16:28:28;95923.19;;;19.37;51.05
48386;BME280;34644;47.964;7.982;2023-08-30T16:35:29;95924.63;;;19.34;51.69
48386;BME280;34644;47.964;7.982;2023-08-30T16:42:29;95917.22;;;19.31;53.23
48386;BME280;34644;47.964;7.982;2023-08-30T16:49:30;95925.22;;;19.31;53.88
48386;BME280;34644;47.964;7.982;2023-08-30T16:56:33;95929.44;;;19.32;54.75
48386;BME280;34644;47.964;7.982;2023-08-30T17:03:33;95926.00;;;19.31;55.23
48386;BME280;34644;47.964;7.982;2023-08-30T17:10:34;95932.13;;;19.32;55.67
48386;BME280;34644;47.964;7.982;2023-08-30T17:17:34;95934.50;;;19.33;56.43
48386;BME280;34644;47.964;7.982;2023-08-30T17:24:35;95937.97;;;19.34;56.56
48386;BME280;34644;47.964;7.982;2023-08-30T17:31:36;95945.97;;;19.34;57.20
48386;BME280;34644;47.964;7.982;2023-08-30T17:38:37;95952.88;;;19.35;57.38
48386;BME280;34644;47.964;7.982;2023-08-30T17:45:38;95970.03;;;19.34;57.74
48386;BME280;34644;47.964;7.982;2023-08-30T17:52:40;95970.81;;;19.34;57.77
48386;BME280;34644;47.964;7.982;2023-08-30T17:59:41;95975.59;;;19.24;56.09
48386;BME280;34644;47.964;7.982;2023-08-30T18:06:41;95984.00;;;19.31;57.82
48386;BME280;34644;47.964;7.982;2023-08-30T18:13:45;96000.19;;;19.34;57.95
48386;BME280;34644;47.964;7.982;2023-08-30T18:20:45;95995.16;;;19.33;58.43
48386;BME280;34644;47.964;7.982;2023-08-30T18:27:48;96003.94;;;19.33;58.46
48386;BME280;34644;47.964;7.982;2023-08-30T18:34:49;96012.78;;;19.34;58.58
48386;BME280;34644;47.964;7.982;2023-08-30T18:41:49;96028.81;;;19.34;58.95
48386;BME280;34644;47.964;7.982;2023-08-30T18:48:50;96034.94;;;19.34;59.28
48386;BME280;34644;47.964;7.982;2023-08-30T18:55:52;96043.72;;;19.35;59.66
48386;BME280;34644;47.964;7.982;2023-08-30T19:02:52;96060.38;;;19.32;59.66
48386;BME280;34644;47.964;7.982;2023-08-30T19:09:52;96064.94;;;19.31;59.96
48386;BME280;34644;47.964;7.982;2023-08-30T19:16:53;96055.81;;;19.32;59.77
48386;BME280;34644;47.964;7.982;2023-08-30T19:23:53;96060.38;;;19.32;59.95
48386;BME280;34644;47.964;7.982;2023-08-30T19:30:53;96053.47;;;19.31;59.85
48386;BME280;34644;47.964;7.982;2023-08-30T19:37:54;96059.59;;;19.31;59.87
48386;BME280;34644;47.964;7.982;2023-08-30T19:44:57;96068.69;;;19.30;60.00
48386;BME280;34644;47.964;7.982;2023-08-30T19:52:03;96079.06;;;19.32;60.12
48386;BME280;34644;47.964;7.982;2023-08-30T19:59:04;96077.50;;;19.31;60.36
48386;BME280;34644;47.964;7.982;2023-08-30T20:06:07;96081.75;;;19.32;60.43
48386;BME280;34644;47.964;7.982;2023-08-30T20:13:07;96079.88;;;19.32;60.20
48386;BME280;34644;47.964;7.982;2023-08-30T20:20:07;96076.41;;;19.32;60.39
48386;BME280;34644;47.964;7.982;2023-08-30T20:27:08;96081.44;;;19.33;60.32
48386;BME280;34644;47.964;7.982;2023-08-30T20:34:09;96079.06;;;19.32;60.60
48386;BME280;34644;47.964;7.982;2023-08-30T20:41:10;96083.31;;;19.33;60.38
48386;BME280;34644;47.964;7.982;2023-08-30T20:48:12;96094.00;;;19.33;60.41
48386;BME280;34644;47.964;7.982;2023-08-30T20:55:12;96088.66;;;19.33;60.43
48386;BME280;34644;47.964;7.982;2023-08-30T21:02:13;96085.53;;;19.31;60.48
48386;BME280;34644;47.964;7.982;2023-08-30T21:09:13;96087.06;;;19.32;60.49
48386;BME280;34644;47.964;7.982;2023-08-30T21:16:13;96089.28;;;19.30;60.55
48386;BME280;34644;47.964;7.982;2023-08-30T21:23:14;96110.34;;;19.31;60.46
48386;BME280;34644;47.964;7.982;2023-08-30T21:30:14;96125.09;;;19.29;60.50
48386;BME280;34644;47.964;7.982;2023-08-30T21:37:15;96137.09;;;19.17;60.28
48386;BME280;34644;47.964;7.982;2023-08-30T21:44:17;96161.00;;;19.23;60.82
48386;BME280;34644;47.964;7.982;2023-08-30T21:51:18;96163.59;;;19.28;61.25
48386;BME280;34644;47.964;7.982;2023-08-30T21:58:18;96185.25;;;19.26;61.48
48386;BME280;34644;47.964;7.982;2023-08-30T22:05:19;96195.66;;;19.28;61.62
48386;BME280;34644;47.964;7.982;2023-08-30T22:12:19;96195.94;;;19.26;61.70
48386;BME280;34644;47.964;7.982;2023-08-30T22:19:20;96201.28;;;19.26;62.15
48386;BME280;34644;47.964;7.982;2023-08-30T22:26:20;96203.66;;;19.28;62.24
48386;BME280;34644;47.964;7.982;2023-08-30T22:33:20;96215.44;;;19.27;62.14
48386;BME280;34644;47.964;7.982;2023-08-30T22:40:21;96223.75;;;19.25;62.57
48386;BME280;34644;47.964;7.982;2023-08-30T22:47:21;96219.19;;;19.26;62.48
48386;BME280;34644;47.964;7.982;2023-08-30T22:54:21;96218.09;;;19.27;62.60
48386;BME280;34644;47.964;7.982;2023-08-30T23:01:22;96222.16;;;19.24;62.73
48386;BME280;34644;47.964;7.982;2023-08-30T23:08:22;96224.22;;;19.27;62.63
48386;BME280;34644;47.964;7.982;2023-08-30T23:15:25;96228.78;;;19.27;62.72
48386;BME280;34644;47.964;7.982;2023-08-30T23:22:25;96226.13;;;19.27;62.80
48386;BME280;34644;47.964;7.982;2023-08-30T23:29:25;96225.81;;;19.28;63.11
48386;BME280;34644;47.964;7.982;2023-08-30T23:36:28;96220.78;;;19.27;63.07
48386;BME280;34644;47.964;7.982;2023-08-30T23:43:29;96211.97;;;19.26;63.15
48386;BME280;34644;47.964;7.982;2023-08-30T23:50:29;96218.09;;;19.27;63.15
48386;BME280;34644;47.964;7.982;2023-08-30T23:57:30;96220.78;;;19.27;63.20
